Archival Weather

Chicago O'Hare International

Chicago, Illinois (KORD)

Report from: Thursday, June 23, 2022 1:51 PM CDT
Current time: Sunday, June 26, 2022 11:30 AM CDT

Current weather
Weather history
Weather forecast

Temperature28.9°C (84.0°F)
Heat index28.0°C (82.5°F)
Dew point10.0°C (50.0°F)
Winds 3 kts (1.5 m/s, 3.5 mph) East-Northeast (70°)
Visibility10 mi. (16.1 km)
Clouds Few clouds 25,000 ft. (7,620 m)
Altimeter30.03 in.Hg (1017 mB)
Relative humidity31 %
Density altitude1,650 ft. (503 m)
Sea-level pressure101.7 kPa (1017 mB, 30.02 in.Hg)
Remarks Automated weather observing station with precipitation discriminator
Flight conditions Visual Meteorological Conditions
Raw dataKORD 231851Z 07003KT 10SM FEW250 29/10 A3003 RMK AO2 SLP165 T02890100
An error has occurred. This application may no longer respond until reloaded. Reload 🗙